Time;durP1;ratioP1;P1;durP2;ratioP2;P2;SDS_P1;SDS_P2;PMS_P1;PMS_P2;Temp;Humidity;BMP_temperature;BMP_pressure;BME280_temperature;BME280_humidity;BME280_pressure;Samples;Min_cycle;Max_cycle;Signal;HPM_P1;HPM_P2
2021/08/09 00:02:15;;;;;;;2.70;1.67;;;;;;;14.36;73.08;101407.47;3572356;40;20848;-79
2021/08/09 00:04:41;;;;;;;2.97;1.70;;;;;;;14.31;73.66;101403.13;3572403;40;20219;-79
2021/08/09 00:07:08;;;;;;;2.27;2.07;;;;;;;14.24;73.90;101401.28;3572423;40;20222;-79
2021/08/09 00:09:33;;;;;;;2.50;2.03;;;;;;;14.07;74.42;101400.13;3572025;40;20254;-79
2021/08/09 00:12:00;;;;;;;4.87;2.27;;;;;;;14.52;72.74;101400.78;3572177;40;20627;-79
2021/08/09 00:14:25;;;;;;;3.83;1.77;;;;;;;14.26;73.29;101400.47;3570636;40;20236;-80
2021/08/09 00:16:51;;;;;;;3.87;2.03;;;;;;;14.43;73.51;101401.56;3571901;40;20215;-80
2021/08/09 00:19:16;;;;;;;3.97;2.33;;;;;;;14.49;73.09;101403.31;3572933;40;20262;-79
2021/08/09 00:21:41;;;;;;;2.83;1.80;;;;;;;14.40;72.83;101403.19;3572075;40;20294;-80
2021/08/09 00:24:06;;;;;;;5.87;2.27;;;;;;;14.23;73.28;101397.81;3573467;40;20227;-80
2021/08/09 00:26:34;;;;;;;3.03;1.80;;;;;;;14.07;73.94;101407.88;3572613;40;20231;-80
2021/08/09 00:28:59;;;;;;;3.20;1.77;;;;;;;14.11;74.21;101407.06;3571965;40;20231;-78
2021/08/09 00:31:25;;;;;;;3.57;2.60;;;;;;;14.29;73.87;101413.38;3572422;40;20324;-80
2021/08/09 00:33:50;;;;;;;2.17;1.90;;;;;;;14.17;74.60;101408.03;3571641;40;20234;-79
2021/08/09 00:36:15;;;;;;;2.83;1.70;;;;;;;14.29;73.54;101404.78;3571303;40;20231;-78
2021/08/09 00:38:40;;;;;;;4.63;2.17;;;;;;;14.51;72.89;101399.91;3572082;40;20317;-80
2021/08/09 00:41:06;;;;;;;4.23;2.40;;;;;;;14.37;73.48;101400.59;3572603;40;20246;-80
2021/08/09 00:43:31;;;;;;;2.30;2.10;;;;;;;14.53;73.20;101403.38;3571055;40;20234;-80
2021/08/09 00:45:59;;;;;;;5.67;2.23;;;;;;;14.31;73.41;101403.97;3572104;40;20233;-80
2021/08/09 00:48:26;;;;;;;2.00;1.90;;;;;;;14.13;73.53;101413.13;3572440;40;20288;-80
2021/08/09 00:50:51;;;;;;;2.77;1.93;;;;;;;13.94;74.74;101404.25;3571489;40;20771;-79
2021/08/09 00:53:16;;;;;;;2.30;1.70;;;;;;;14.10;74.25;101410.50;3572349;40;20323;-79
2021/08/09 00:55:44;;;;;;;2.97;2.43;;;;;;;14.23;74.48;101409.88;3573253;40;20227;-79
2021/08/09 00:58:10;;;;;;;2.10;1.80;;;;;;;14.39;73.49;101414.34;3573823;40;20259;-79
2021/08/09 01:00:36;;;;;;;3.80;2.20;;;;;;;14.36;73.59;101411.75;3573353;40;20279;-79
2021/08/09 01:03:01;;;;;;;4.70;2.60;;;;;;;14.51;73.23;101410.22;3572161;40;20235;-79
2021/08/09 01:05:26;;;;;;;2.17;1.97;;;;;;;14.59;72.77;101410.34;3573261;40;20304;-79
2021/08/09 01:08:04;;;;;;;7.90;2.73;;;;;;;14.70;71.56;101421.63;3573695;40;20801;-79
2021/08/09 01:10:42;;;;;;;2.83;2.20;;;;;;;14.71;71.90;101419.09;3573462;40;20235;-80
2021/08/09 01:13:22;;;;;;;3.67;2.10;;;;;;;14.66;72.24;101414.72;3573816;40;20509;-79
2021/08/09 01:15:56;;;;;;;3.47;2.50;;;;;;;14.43;73.26;101421.28;3573908;40;20280;-79
2021/08/09 01:18:25;;;;;;;4.13;2.40;;;;;;;14.79;72.75;101412.31;3574255;40;20510;-79
2021/08/09 01:20:55;;;;;;;4.03;2.40;;;;;;;14.55;73.11;101406.84;3572025;40;20308;-79
2021/08/09 01:23:37;;;;;;;3.87;1.80;;;;;;;14.51;73.45;101414.53;3572395;40;20238;-79
2021/08/09 01:26:11;;;;;;;4.17;2.27;;;;;;;14.50;73.28;101411.06;3573107;40;20229;-79
2021/08/09 01:28:37;;;;;;;3.93;2.00;;;;;;;14.83;72.43;101402.88;3572350;40;20283;-79
2021/08/09 01:31:03;;;;;;;4.70;2.43;;;;;;;14.57;72.85;101407.75;3573218;40;20245;-79
2021/08/09 01:33:31;;;;;;;4.93;2.50;;;;;;;14.76;72.96;101403.66;3573258;40;20227;-79
2021/08/09 01:35:58;;;;;;;3.93;2.40;;;;;;;14.65;73.33;101403.53;3572464;40;20264;-79
2021/08/09 01:38:26;;;;;;;7.37;3.40;;;;;;;14.76;73.27;101404.53;3580386;40;20230;-79
2021/08/09 01:40:56;;;;;;;4.77;2.67;;;;;;;14.69;73.89;101409.59;3571869;40;20234;-79
2021/08/09 01:43:23;;;;;;;5.33;2.00;;;;;;;14.77;73.30;101407.94;3581549;40;20215;-80
2021/08/09 01:45:51;;;;;;;5.37;2.23;;;;;;;14.77;73.05;101416.56;3573316;40;20231;-79
2021/08/09 01:48:17;;;;;;;4.23;2.43;;;;;;;14.72;73.12;101412.19;3572859;40;20225;-79
2021/08/09 01:50:42;;;;;;;3.00;1.93;;;;;;;14.77;72.90;101413.97;3573313;40;20242;-80
2021/08/09 01:53:08;;;;;;;3.87;2.30;;;;;;;14.84;73.52;101412.34;3573342;40;20222;-80
2021/08/09 01:55:34;;;;;;;5.40;2.37;;;;;;;14.92;72.39;101408.16;3581338;40;20245;-79
2021/08/09 01:57:59;;;;;;;6.43;2.33;;;;;;;15.08;71.77;101425.50;3572550;40;20234;-80
2021/08/09 02:00:27;;;;;;;3.67;2.07;;;;;;;15.07;71.98;101414.34;3572530;40;20279;-79
2021/08/09 02:02:54;;;;;;;3.50;2.47;;;;;;;15.27;71.48;101417.97;3572531;40;20255;-79
2021/08/09 02:05:19;;;;;;;3.27;1.70;;;;;;;14.88;72.69;101417.53;3573581;40;20222;-80
2021/08/09 02:07:47;;;;;;;3.50;2.00;;;;;;;14.93;72.34;101418.47;3572954;40;20234;-79
2021/08/09 02:10:16;;;;;;;4.03;2.37;;;;;;;14.74;72.95;101418.25;3572255;40;20246;-79
2021/08/09 02:12:54;;;;;;;2.30;2.00;;;;;;;14.87;72.55;101420.13;3580585;40;20270;-79
2021/08/09 02:15:29;;;;;;;2.70;1.93;;;;;;;14.80;72.94;101423.47;3573640;40;20235;-79
2021/08/09 02:18:04;;;;;;;3.37;1.90;;;;;;;15.09;71.48;101422.06;3573186;40;20230;-79
2021/08/09 02:20:37;;;;;;;3.00;1.93;;;;;;;15.03;71.45;101424.59;3573526;40;20261;-79
2021/08/09 02:23:08;;;;;;;3.33;2.13;;;;;;;15.16;71.59;101422.16;3572173;40;20238;-79
2021/08/09 02:25:35;;;;;;;3.07;2.40;;;;;;;15.10;71.62;101416.94;3573214;40;20237;-79
2021/08/09 02:28:14;;;;;;;4.87;2.20;;;;;;;15.07;71.77;101429.81;3571987;40;20234;-79
2021/08/09 02:30:55;;;;;;;4.33;1.80;;;;;;;14.86;72.65;101431.25;3572466;40;20286;-79
2021/08/09 02:33:22;;;;;;;2.97;2.30;;;;;;;14.93;73.09;101438.25;3574069;40;20222;-79
2021/08/09 02:35:49;;;;;;;3.90;2.30;;;;;;;15.21;71.65;101435.97;3571633;40;20424;-79
2021/08/09 02:38:15;;;;;;;3.33;1.80;;;;;;;15.18;71.21;101435.94;3572138;40;20767;-79
2021/08/09 02:40:41;;;;;;;9.47;2.57;;;;;;;15.12;71.85;101447.91;3572646;40;20258;-79
2021/08/09 02:43:07;;;;;;;5.13;2.37;;;;;;;15.24;71.48;101445.47;3579745;40;20226;-80
2021/08/09 02:45:33;;;;;;;4.77;2.33;;;;;;;15.45;70.67;101437.94;3572870;40;20251;-79
2021/08/09 02:47:59;;;;;;;3.33;1.80;;;;;;;15.46;70.19;101445.72;3571694;40;20226;-79
2021/08/09 02:50:25;;;;;;;5.50;2.10;;;;;;;15.34;70.79;101445.59;3572167;40;20242;-79
2021/08/09 02:52:50;;;;;;;3.97;1.90;;;;;;;15.26;70.88;101446.34;3572459;40;20250;-79
2021/08/09 02:55:18;;;;;;;5.23;2.00;;;;;;;15.22;71.21;101450.59;3572929;40;20221;-79
2021/08/09 02:57:47;;;;;;;3.90;2.10;;;;;;;15.07;71.52;101455.63;3579968;40;20250;-79
2021/08/09 03:00:12;;;;;;;3.77;2.20;;;;;;;15.06;71.66;101455.59;3571309;40;20236;-79
2021/08/09 03:02:42;;;;;;;2.80;2.07;;;;;;;15.18;71.86;101447.97;3572698;40;20238;-79
2021/08/09 03:05:09;;;;;;;3.03;1.93;;;;;;;15.13;71.53;101447.03;3573320;40;20250;-80
2021/08/09 03:07:36;;;;;;;5.37;2.40;;;;;;;14.90;72.49;101454.53;3572686;40;20245;-80
2021/08/09 03:10:06;;;;;;;5.37;2.43;;;;;;;14.90;72.58;101454.53;3572482;40;20240;-81
2021/08/09 03:12:32;;;;;;;5.07;2.27;;;;;;;15.15;71.79;101451.38;3572893;40;20230;-80
2021/08/09 03:14:57;;;;;;;4.00;2.30;;;;;;;15.20;71.82;101456.59;3580233;40;20320;-79
2021/08/09 03:17:23;;;;;;;3.93;2.03;;;;;;;15.00;71.75;101450.34;3572376;40;20238;-79
2021/08/09 03:19:48;;;;;;;3.97;2.20;;;;;;;15.14;71.25;101459.13;3572432;40;20239;-80
2021/08/09 03:22:13;;;;;;;4.50;2.17;;;;;;;15.11;72.21;101451.34;3572705;40;20280;-79
2021/08/09 03:24:39;;;;;;;2.50;1.60;;;;;;;15.03;71.47;101453.84;3572211;40;20222;-79
2021/08/09 03:27:05;;;;;;;3.93;1.97;;;;;;;14.71;72.69;101451.72;3572512;40;20229;-79
2021/08/09 03:29:30;;;;;;;3.50;2.00;;;;;;;14.79;72.81;101451.00;3571252;40;20242;-79
2021/08/09 03:31:56;;;;;;;3.97;2.20;;;;;;;14.67;73.09;101462.84;3572617;40;20519;-79
2021/08/09 03:34:21;;;;;;;6.30;2.27;;;;;;;14.87;72.12;101453.66;3572333;40;20230;-80
2021/08/09 03:36:47;;;;;;;5.20;2.07;;;;;;;14.83;72.46;101451.88;3573570;40;20222;-79
2021/08/09 03:39:13;;;;;;;3.30;2.00;;;;;;;14.65;73.11;101454.22;3573110;40;20226;-79
2021/08/09 03:41:39;;;;;;;2.77;2.03;;;;;;;14.55;73.16;101458.38;3565380;40;20215;-80
2021/08/09 03:44:05;;;;;;;3.40;1.90;;;;;;;14.76;72.86;101450.06;3564303;40;20316;-79
2021/08/09 03:46:31;;;;;;;4.03;1.90;;;;;;;14.78;71.98;101449.22;3572917;40;20234;-80
2021/08/09 03:48:56;;;;;;;5.70;2.33;;;;;;;14.50;73.16;101460.03;3571194;40;20230;-80
2021/08/09 03:51:21;;;;;;;2.60;2.03;;;;;;;14.29;73.90;101458.88;3580203;40;20618;-79
2021/08/09 03:53:47;;;;;;;4.00;2.37;;;;;;;14.35;73.79;101454.69;3571753;40;20243;-79
2021/08/09 03:56:12;;;;;;;5.10;2.33;;;;;;;14.40;73.53;101454.72;3572569;40;20231;-80
2021/08/09 03:58:37;;;;;;;3.83;2.30;;;;;;;14.38;73.39;101448.72;3572515;40;20531;-79
2021/08/09 04:01:04;;;;;;;3.03;1.70;;;;;;;14.38;73.68;101452.16;3572607;40;20315;-80
2021/08/09 04:03:29;;;;;;;4.97;2.17;;;;;;;14.39;74.00;101456.47;3573142;40;20238;-79
2021/08/09 04:05:55;;;;;;;3.70;1.77;;;;;;;14.32;73.68;101459.78;3572876;40;20303;-79
2021/08/09 04:08:20;;;;;;;2.30;1.80;;;;;;;14.42;73.50;101465.94;3573353;40;20230;-79
2021/08/09 04:10:45;;;;;;;4.50;2.20;;;;;;;14.46;73.01;101463.41;3572446;40;20270;-79
2021/08/09 04:13:11;;;;;;;4.47;2.10;;;;;;;14.71;72.35;101468.06;3571804;40;20230;-79
2021/08/09 04:15:36;;;;;;;3.93;2.40;;;;;;;14.35;73.42;101466.69;3572604;40;20674;-79
2021/08/09 04:18:01;;;;;;;4.40;2.30;;;;;;;14.49;72.59;101472.91;3572369;40;20228;-79
2021/08/09 04:20:27;;;;;;;2.77;2.00;;;;;;;14.21;73.88;101465.63;3571266;40;20612;-80
2021/08/09 04:22:52;;;;;;;4.03;2.20;;;;;;;14.14;74.56;101471.50;3571615;40;20230;-80
2021/08/09 04:25:17;;;;;;;5.43;2.07;;;;;;;14.06;74.76;101475.69;3574114;40;20244;-79
2021/08/09 04:27:42;;;;;;;3.83;2.30;;;;;;;14.18;74.93;101471.56;3573166;40;20222;-79
2021/08/09 04:30:08;;;;;;;4.97;2.30;;;;;;;14.13;75.17;101480.09;3573970;40;20639;-79
2021/08/09 04:32:39;;;;;;;5.50;2.43;;;;;;;14.13;74.64;101477.53;3573031;40;20237;-80
2021/08/09 04:35:10;;;;;;;3.93;2.00;;;;;;;14.33;74.10;101474.44;3565121;40;20222;-80
2021/08/09 04:37:36;;;;;;;5.20;2.27;;;;;;;14.13;74.22;101490.41;3563450;40;20242;-79
2021/08/09 04:40:03;;;;;;;5.33;2.30;;;;;;;14.08;75.46;101487.72;3564391;40;20290;-80
2021/08/09 04:42:28;;;;;;;6.43;2.77;;;;;;;14.38;74.54;101488.25;3563422;40;20313;-80
2021/08/09 04:44:53;;;;;;;3.97;2.10;;;;;;;14.37;74.42;101488.22;3563540;40;20231;-79
2021/08/09 04:47:19;;;;;;;3.90;2.37;;;;;;;14.44;73.75;101488.31;3564322;40;20637;-79
2021/08/09 04:49:44;;;;;;;7.07;2.47;;;;;;;14.68;73.30;101483.47;3564416;40;20249;-80
2021/08/09 04:52:09;;;;;;;4.37;2.40;;;;;;;14.78;72.59;101489.63;3563148;40;20227;-79
2021/08/09 04:54:35;;;;;;;7.50;2.90;;;;;;;15.16;72.22;101489.25;3563574;40;20228;-80
2021/08/09 04:57:01;;;;;;;5.23;2.23;;;;;;;15.02;72.19;101488.22;3564624;40;20317;-79
2021/08/09 04:59:26;;;;;;;5.73;2.30;;;;;;;15.16;71.78;101497.00;3563544;40;20316;-80
2021/08/09 05:01:51;;;;;;;4.57;2.70;;;;;;;15.17;72.10;101497.84;3565046;40;20235;-80
2021/08/09 05:04:16;;;;;;;6.10;2.43;;;;;;;15.28;71.68;101502.28;3565469;40;20254;-79
2021/08/09 05:06:42;;;;;;;3.70;2.20;;;;;;;15.16;72.04;101504.72;3566267;40;20223;-80
2021/08/09 05:09:07;;;;;;;3.87;2.13;;;;;;;15.13;72.46;101501.22;3565760;40;20223;-82
2021/08/09 05:11:32;;;;;;;4.37;2.50;;;;;;;15.17;72.51;101503.88;3564821;40;20235;-80
2021/08/09 05:13:58;;;;;;;5.63;2.33;;;;;;;15.42;71.52;101511.06;3563633;40;20629;-79
2021/08/09 05:16:23;;;;;;;4.60;2.37;;;;;;;15.36;71.50;101508.41;3564902;40;20227;-81
2021/08/09 05:18:50;;;;;;;6.57;2.67;;;;;;;15.56;71.55;101517.22;3564694;40;20253;-80
2021/08/09 05:21:16;;;;;;;4.83;2.50;;;;;;;15.61;71.24;101509.53;3565121;40;20258;-80
2021/08/09 05:23:41;;;;;;;5.70;2.90;;;;;;;15.82;69.73;101520.06;3565346;40;20238;-80
2021/08/09 05:26:06;;;;;;;3.77;2.03;;;;;;;15.75;71.29;101507.94;3565531;40;20227;-81
2021/08/09 05:28:32;;;;;;;4.33;2.60;;;;;;;16.04;69.14;101516.81;3562803;40;20684;-79
2021/08/09 05:30:57;;;;;;;5.27;2.37;;;;;;;16.09;69.39;101512.53;3563554;40;20250;-79
2021/08/09 05:33:22;;;;;;;6.63;2.47;;;;;;;16.08;69.88;101516.84;3573818;40;20223;-80
2021/08/09 05:35:47;;;;;;;6.30;2.40;;;;;;;16.18;69.38;101513.47;3573468;40;20270;-80
2021/08/09 05:38:17;;;;;;;6.57;2.33;;;;;;;16.22;69.17;101511.78;3573782;40;20225;-80
2021/08/09 05:40:52;;;;;;;4.93;2.30;;;;;;;16.21;68.86;101512.63;3582129;40;20527;-79
2021/08/09 05:43:17;;;;;;;4.80;2.60;;;;;;;16.38;68.29;101503.25;3582799;40;20230;-80
2021/08/09 05:45:46;;;;;;;3.93;2.50;;;;;;;16.42;68.37;101516.25;3581895;40;20234;-79
2021/08/09 05:48:11;;;;;;;4.57;2.50;;;;;;;16.39;68.82;101515.34;3575644;40;20219;-80
2021/08/09 05:50:42;;;;;;;3.63;2.00;;;;;;;16.50;68.29;101512.00;3562523;40;20249;-80
2021/08/09 05:53:07;;;;;;;6.67;2.37;;;;;;;16.64;67.66;101506.91;3563495;40;20575;-80
2021/08/09 05:55:32;;;;;;;3.43;2.10;;;;;;;16.75;67.52;101500.94;3565015;40;20281;-80
2021/08/09 05:58:00;;;;;;;10.27;2.90;;;;;;;16.77;67.69;101511.28;3564208;40;20231;-79
2021/08/09 06:00:26;;;;;;;5.73;2.30;;;;;;;16.85;68.06;101507.03;3568916;40;20240;-80
2021/08/09 06:02:51;;;;;;;5.33;2.60;;;;;;;17.01;67.60;101506.22;3572756;40;20230;-79
2021/08/09 06:05:19;;;;;;;5.10;2.37;;;;;;;17.14;66.82;101500.22;3572395;40;20319;-79
2021/08/09 06:07:44;;;;;;;5.73;2.43;;;;;;;17.30;65.96;101505.47;3580937;40;20288;-80
2021/08/09 06:10:12;;;;;;;4.73;2.43;;;;;;;17.42;64.80;101507.25;3574598;40;20246;-80
2021/08/09 06:12:38;;;;;;;5.77;2.40;;;;;;;17.43;65.84;101494.31;3582334;40;20350;-80
2021/08/09 06:15:07;;;;;;;3.57;2.50;;;;;;;17.56;65.69;101498.66;3574271;40;20230;-80
2021/08/09 06:17:33;;;;;;;4.57;2.30;;;;;;;17.61;64.83;101496.94;3574815;40;20222;-80
2021/08/09 06:19:59;;;;;;;8.13;2.50;;;;;;;17.66;64.23;101499.50;3574794;40;20257;-80
2021/08/09 06:22:24;;;;;;;5.33;2.30;;;;;;;17.64;65.29;101496.91;3573498;40;20219;-80
2021/08/09 06:24:49;;;;;;;5.87;2.40;;;;;;;17.74;64.33;101500.41;3574760;40;20234;-80
2021/08/09 06:27:15;;;;;;;4.53;2.10;;;;;;;17.74;64.18;101503.00;3575081;40;20245;-80
2021/08/09 06:29:40;;;;;;;6.73;2.50;;;;;;;17.78;64.38;101497.78;3564704;40;20640;-80
2021/08/09 06:32:06;;;;;;;4.90;2.00;;;;;;;17.89;64.50;101508.16;3574400;40;20230;-80
2021/08/09 06:34:31;;;;;;;6.47;2.40;;;;;;;18.04;63.32;101490.91;3565946;40;20601;-81
2021/08/09 06:36:56;;;;;;;5.30;2.40;;;;;;;18.06;63.35;101498.69;3567174;40;20215;-80
2021/08/09 06:39:21;;;;;;;5.97;2.23;;;;;;;18.09;63.37;101506.44;3574117;40;20234;-80
2021/08/09 06:41:47;;;;;;;4.33;2.20;;;;;;;18.11;62.95;101505.59;3571833;40;20243;-81
2021/08/09 06:44:13;;;;;;;6.93;2.70;;;;;;;18.15;63.28;101503.84;3575426;40;20218;-80
2021/08/09 06:46:38;;;;;;;4.87;2.60;;;;;;;18.20;63.91;101499.53;3575019;40;20246;-80
2021/08/09 06:49:04;;;;;;;4.87;2.23;;;;;;;18.23;63.01;101500.38;3573412;40;20481;-79
2021/08/09 06:51:30;;;;;;;3.77;2.30;;;;;;;18.26;63.49;101509.88;3574093;40;20225;-82
2021/08/09 06:53:55;;;;;;;4.30;2.53;;;;;;;18.27;63.08;101509.88;3575772;40;20234;-81
2021/08/09 06:56:20;;;;;;;5.27;2.27;;;;;;;18.39;62.84;101503.84;3574656;40;20304;-80
2021/08/09 06:58:46;;;;;;;5.23;2.20;;;;;;;18.44;62.50;101507.31;3575018;40;20232;-80
2021/08/09 07:01:11;;;;;;;8.90;2.63;;;;;;;18.49;61.90;101510.75;3572727;40;20528;-80
2021/08/09 07:03:36;;;;;;;6.73;2.73;;;;;;;18.41;61.91;101510.75;3574391;40;20229;-80
2021/08/09 07:06:01;;;;;;;3.97;2.57;;;;;;;18.35;63.18;101505.59;3573419;40;20222;-78
2021/08/09 07:08:27;;;;;;;6.43;2.30;;;;;;;18.43;62.65;101500.38;3573306;40;20226;-79
2021/08/09 07:10:52;;;;;;;6.13;2.47;;;;;;;18.51;61.55;101491.72;3573584;40;20235;-80
2021/08/09 07:13:18;;;;;;;7.00;2.63;;;;;;;18.50;62.43;101502.09;3572438;40;20223;-79
2021/08/09 07:15:43;;;;;;;7.03;2.80;;;;;;;18.49;62.40;101505.56;3573746;40;20218;-80
2021/08/09 07:18:09;;;;;;;6.27;2.80;;;;;;;18.56;62.65;101504.69;3573204;40;20231;-80
2021/08/09 07:20:34;;;;;;;6.87;2.47;;;;;;;18.53;63.38;101512.47;3571998;40;20257;-80
2021/08/09 07:23:00;;;;;;;6.13;2.80;;;;;;;18.76;61.75;101508.97;3572928;40;20312;-81
2021/08/09 07:25:25;;;;;;;8.17;2.80;;;;;;;18.86;61.20;101512.38;3566393;40;20242;-80
2021/08/09 07:27:50;;;;;;;5.07;2.50;;;;;;;18.90;61.83;101514.09;3573433;40;20234;-80
2021/08/09 07:30:17;;;;;;;4.87;2.20;;;;;;;18.89;60.95;101513.22;3562803;40;20258;-80
2021/08/09 07:32:43;;;;;;;7.53;2.40;;;;;;;18.89;61.51;101513.22;3572251;40;20237;-80
2021/08/09 07:35:08;;;;;;;6.30;2.53;;;;;;;18.82;61.00;101521.03;3563703;40;20232;-78
2021/08/09 07:37:34;;;;;;;6.43;2.63;;;;;;;18.75;61.95;101527.13;3567808;40;20517;-79
2021/08/09 07:39:59;;;;;;;6.23;2.50;;;;;;;18.86;61.49;101526.22;3572888;40;20246;-80
2021/08/09 07:42:24;;;;;;;9.70;3.30;;;;;;;18.88;60.76;101528.81;3573092;40;20230;-79
2021/08/09 07:44:51;;;;;;;10.17;2.90;;;;;;;18.89;61.77;101526.19;3573468;40;20321;-80
2021/08/09 07:47:17;;;;;;;6.53;2.83;;;;;;;18.93;61.13;101534.84;3573148;40;20230;-80
2021/08/09 07:49:42;;;;;;;8.27;2.90;;;;;;;19.01;61.15;101525.28;3572634;40;20683;-80
2021/08/09 07:52:08;;;;;;;6.73;3.00;;;;;;;19.11;60.26;101527.00;3573070;40;20222;-80
2021/08/09 07:54:33;;;;;;;10.63;3.10;;;;;;;19.09;59.35;101529.59;3573570;40;20224;-80
2021/08/09 07:57:03;;;;;;;9.97;3.03;;;;;;;19.16;60.60;101523.47;3572876;40;20219;-80
2021/08/09 07:59:28;;;;;;;7.17;2.70;;;;;;;19.30;60.66;101532.09;3572791;40;20242;-80
2021/08/09 08:01:54;;;;;;;8.63;3.20;;;;;;;19.43;60.36;101528.56;3573619;40;20237;-80
2021/08/09 08:04:20;;;;;;;7.10;2.73;;;;;;;19.58;59.64;101532.84;3572430;40;20699;-79
2021/08/09 08:06:45;;;;;;;8.80;2.73;;;;;;;19.72;59.17;101531.00;3572911;40;20226;-79
2021/08/09 08:09:10;;;;;;;8.73;3.23;;;;;;;19.85;59.85;101536.09;3572783;40;20242;-80
2021/08/09 08:11:36;;;;;;;8.73;3.07;;;;;;;19.88;58.21;101535.22;3573155;40;20621;-80
2021/08/09 08:14:01;;;;;;;8.23;3.10;;;;;;;19.91;58.10;101536.06;3572772;40;20226;-80
2021/08/09 08:16:26;;;;;;;6.13;2.50;;;;;;;20.01;58.76;101537.72;3572168;40;20388;-80
2021/08/09 08:18:52;;;;;;;6.87;2.47;;;;;;;20.10;58.26;101547.22;3572272;40;20229;-80
2021/08/09 08:21:17;;;;;;;6.70;2.83;;;;;;;20.29;59.18;101548.78;3572947;40;20234;-80
2021/08/09 08:23:42;;;;;;;5.47;2.50;;;;;;;20.32;58.37;101541.78;3573098;40;20296;-80
2021/08/09 08:26:07;;;;;;;8.30;2.97;;;;;;;20.50;57.54;101539.03;3572895;40;20223;-80
2021/08/09 08:28:35;;;;;;;6.63;2.60;;;;;;;20.67;55.88;101544.06;3589156;40;20239;-80
2021/08/09 08:31:00;;;;;;;7.33;2.60;;;;;;;20.55;57.03;101547.66;3561387;40;20242;-80
2021/08/09 08:33:25;;;;;;;7.27;2.90;;;;;;;20.49;56.92;101542.50;3568513;40;20219;-80
2021/08/09 08:35:50;;;;;;;6.17;2.90;;;;;;;20.50;57.17;101549.44;3562744;40;20226;-82
2021/08/09 08:38:16;;;;;;;4.93;2.40;;;;;;;20.49;57.23;101555.53;3568363;40;20231;-79
2021/08/09 08:40:47;;;;;;;8.07;2.77;;;;;;;20.47;56.30;101559.91;3572353;40;20234;-80
2021/08/09 08:43:26;;;;;;;6.43;2.90;;;;;;;20.48;56.94;101556.41;3578836;40;20241;-80
2021/08/09 08:46:07;;;;;;;6.63;2.40;;;;;;;20.53;56.40;101559.81;3572913;40;20250;-80
2021/08/09 08:48:34;;;;;;;5.33;2.40;;;;;;;20.44;56.83;101559.03;3580568;40;20304;-80
2021/08/09 08:51:02;;;;;;;7.93;2.83;;;;;;;20.50;56.53;101559.84;3571790;40;20716;-79
2021/08/09 08:53:29;;;;;;;5.37;2.20;;;;;;;20.63;55.07;101571.88;3572040;40;20608;-80
2021/08/09 08:55:55;;;;;;;5.73;2.40;;;;;;;20.72;55.58;101568.28;3571607;40;20278;-81
2021/08/09 08:58:20;;;;;;;4.40;2.40;;;;;;;20.85;54.77;101562.09;3567010;40;20239;-80
2021/08/09 09:00:48;;;;;;;7.97;2.77;;;;;;;20.87;55.59;101565.56;3567735;40;20532;-80
2021/08/09 09:03:25;;;;;;;5.30;2.40;;;;;;;21.11;54.78;101578.31;3567513;40;20648;-80
2021/08/09 09:05:57;;;;;;;6.30;2.20;;;;;;;21.07;53.32;101561.00;3577883;40;20252;-80
2021/08/09 09:08:37;;;;;;;6.37;2.40;;;;;;;21.08;53.09;101578.34;3566606;40;20310;-79
2021/08/09 09:11:04;;;;;;;5.43;2.23;;;;;;;20.93;52.60;101566.38;3570817;40;20338;-80
2021/08/09 09:13:29;;;;;;;4.60;2.20;;;;;;;20.91;54.41;101573.34;3572732;40;20265;-80
2021/08/09 09:16:09;;;;;;;5.77;2.13;;;;;;;21.04;53.57;101581.88;3573633;40;20645;-81
2021/08/09 09:18:53;;;;;;;5.50;2.37;;;;;;;21.17;52.48;101570.44;3573734;40;20223;-79
2021/08/09 09:21:36;;;;;;;4.70;2.10;;;;;;;21.24;52.95;101577.31;3573921;40;20235;-80
2021/08/09 09:24:16;;;;;;;5.20;1.93;;;;;;;21.35;53.07;101575.41;3571381;40;20306;-80
2021/08/09 09:26:46;;;;;;;4.80;2.10;;;;;;;21.45;50.93;101577.00;3567963;40;20250;-79
2021/08/09 09:29:13;;;;;;;6.13;1.80;;;;;;;21.56;50.80;101578.59;3574009;40;20223;-79
2021/08/09 09:31:41;;;;;;;4.60;1.90;;;;;;;21.69;50.55;101576.75;3572100;40;20565;-80
2021/08/09 09:34:10;;;;;;;6.97;1.97;;;;;;;21.90;49.36;101576.41;3567867;40;20234;-79
2021/08/09 09:36:46;;;;;;;5.47;2.00;;;;;;;21.89;49.51;101580.75;3563962;40;20231;-80
2021/08/09 09:39:36;;;;;;;8.03;2.10;;;;;;;21.92;48.99;101580.72;3563139;40;20247;-80
2021/08/09 09:42:05;;;;;;;3.13;1.70;;;;;;;21.88;48.96;101578.19;3563305;40;20223;-80
2021/08/09 09:44:32;;;;;;;3.43;1.67;;;;;;;22.04;49.94;101588.38;3564457;40;20236;-80
2021/08/09 09:47:26;;;;;;;4.63;1.60;;;;;;;22.15;47.02;101576.00;3564548;40;20232;-79
2021/08/09 09:49:56;;;;;;;4.93;1.67;;;;;;;22.16;48.31;101582.94;3563410;40;20235;-80
2021/08/09 09:52:40;;;;;;;4.60;1.77;;;;;;;22.20;47.96;101578.56;3571760;40;20239;-80
2021/08/09 09:55:07;;;;;;;3.93;1.60;;;;;;;21.93;47.69;101585.03;3563753;40;20247;-81
2021/08/09 09:57:34;;;;;;;6.03;2.17;;;;;;;21.94;49.39;101588.53;3563627;40;20219;-80
2021/08/09 09:59:59;;;;;;;3.77;2.00;;;;;;;21.99;49.90;101587.56;3562287;40;20788;-80
2021/08/09 10:02:26;;;;;;;3.43;1.73;;;;;;;22.11;48.24;101597.81;3563444;40;20241;-79
2021/08/09 10:04:57;;;;;;;3.43;1.97;;;;;;;22.12;48.78;101598.69;3568778;40;20641;-80
2021/08/09 10:07:27;;;;;;;3.17;1.70;;;;;;;22.16;48.64;101600.38;3573899;40;20231;-80
2021/08/09 10:10:00;;;;;;;4.07;2.10;;;;;;;22.29;47.34;101594.06;3573774;40;20698;-82
2021/08/09 10:12:32;;;;;;;4.60;1.93;;;;;;;22.33;48.80;101597.47;3573391;40;20227;-79
2021/08/09 10:15:00;;;;;;;4.20;1.77;;;;;;;22.39;47.85;101608.69;3573429;40;20297;-80
2021/08/09 10:17:28;;;;;;;3.87;1.70;;;;;;;22.18;48.18;101595.97;3572385;40;20227;-80
2021/08/09 10:20:06;;;;;;;2.60;1.60;;;;;;;22.04;47.04;101608.38;3572250;40;20258;-80
2021/08/09 10:22:34;;;;;;;4.03;2.07;;;;;;;21.97;47.83;101607.59;3574054;40;20237;-80
2021/08/09 10:25:01;;;;;;;3.67;1.50;;;;;;;22.05;47.39;101599.66;3566174;40;20227;-81
2021/08/09 10:27:48;;;;;;;3.50;1.40;;;;;;;22.16;48.43;101601.19;3563580;40;20250;-81
2021/08/09 10:30:15;;;;;;;3.50;1.80;;;;;;;22.39;47.34;101599.09;3552755;40;20247;-80
2021/08/09 10:32:57;;;;;;;3.97;1.97;;;;;;;22.67;47.63;101599.50;3563873;40;20242;-80
2021/08/09 10:35:45;;;;;;;4.33;1.63;;;;;;;22.71;46.14;101595.97;3573264;40;20222;-81
2021/08/09 10:38:23;;;;;;;3.90;1.53;;;;;;;22.54;47.56;101603.22;3572490;40;20231;-81
2021/08/09 10:41:01;;;;;;;4.97;1.90;;;;;;;22.38;47.72;101602.59;3573308;40;20227;-80
2021/08/09 10:43:27;;;;;;;5.93;1.70;;;;;;;22.32;48.76;101609.66;3572790;40;20601;-80
2021/08/09 10:45:53;;;;;;;4.20;1.60;;;;;;;22.27;48.41;101611.47;3573899;40;20251;-80
2021/08/09 10:48:46;;;;;;;4.17;1.40;;;;;;;22.12;46.22;101622.16;3574433;40;20226;-82
2021/08/09 10:51:12;;;;;;;4.10;1.47;;;;;;;21.89;47.29;101619.03;3580329;40;20308;-80
2021/08/09 10:53:46;;;;;;;3.23;1.63;;;;;;;21.86;48.21;101617.34;3571071;40;20251;-81
2021/08/09 10:56:46;;;;;;;2.93;1.53;;;;;;;21.88;49.05;101618.16;3561919;40;20232;-80
2021/08/09 10:59:37;;;;;;;4.53;1.50;;;;;;;21.94;48.13;101618.09;3571567;40;20259;-81
2021/08/09 11:02:03;;;;;;;2.27;1.33;;;;;;;21.96;49.06;101623.25;3571261;40;20241;-80
2021/08/09 11:04:29;;;;;;;3.90;1.40;;;;;;;22.06;48.78;101617.06;3571992;40;20214;-80
2021/08/09 11:06:54;;;;;;;3.20;1.40;;;;;;;21.93;47.73;101620.72;3571496;40;20312;-80
2021/08/09 11:09:35;;;;;;;6.27;1.70;;;;;;;21.89;47.28;101619.88;3572115;40;20231;-80
2021/08/09 11:12:21;;;;;;;2.80;1.60;;;;;;;21.87;48.88;101623.38;3561850;40;20242;-80
2021/08/09 11:15:03;;;;;;;4.37;1.73;;;;;;;21.77;49.71;101624.41;3562153;40;20230;-80
2021/08/09 11:17:32;;;;;;;4.77;1.97;;;;;;;21.64;49.30;101630.63;3561683;40;20223;-80
2021/08/09 11:20:24;;;;;;;3.93;1.50;;;;;;;21.68;49.83;101629.72;3569055;40;20258;-80
2021/08/09 11:23:00;;;;;;;2.90;1.50;;;;;;;21.65;50.50;101627.16;3562176;40;20275;-80
2021/08/09 11:25:46;;;;;;;2.73;1.40;;;;;;;21.82;49.44;101627.81;3569603;40;20242;-80
2021/08/09 11:28:18;;;;;;;5.10;1.97;;;;;;;21.86;48.53;101635.59;3562758;40;20247;-80
2021/08/09 11:30:57;;;;;;;3.57;1.60;;;;;;;21.83;48.37;101637.38;3562817;40;20236;-81